Time;durP1;ratioP1;P1;durP2;ratioP2;P2;SDS_P1;SDS_P2;PMS_P1;PMS_P2;Temp;Humidity;BMP_temperature;BMP_pressure;BME280_temperature;BME280_humidity;BME280_pressure;Samples;Min_cycle;Max_cycle;Signal;HPM_P1;HPM_P2
2021/06/27 00:00:15;;;;;;;12.75;9.95;;;17.40;99.90;;;;;;6141222;23;20017;-86
2021/06/27 00:02:42;;;;;;;14.20;10.27;;;17.40;99.90;;;;;;6159330;23;20072;-86
2021/06/27 00:05:11;;;;;;;15.07;10.80;;;17.30;99.90;;;;;;6132155;23;20030;-86
2021/06/27 00:07:39;;;;;;;13.90;10.00;;;17.20;99.90;;;;;;6133810;23;20041;-86
2021/06/27 00:10:09;;;;;;;15.02;10.10;;;17.30;99.90;;;;;;6159544;23;20013;-86
2021/06/27 00:12:38;;;;;;;15.05;11.00;;;17.20;99.90;;;;;;6131857;23;20348;-86
2021/06/27 00:15:09;;;;;;;13.85;10.60;;;17.20;99.90;;;;;;6134317;23;20138;-86
2021/06/27 00:17:36;;;;;;;14.43;9.85;;;17.10;99.90;;;;;;6157272;23;20447;-86
2021/06/27 00:20:04;;;;;;;14.73;10.23;;;17.10;99.90;;;;;;6134770;23;20029;-86
2021/06/27 00:22:31;;;;;;;14.55;9.50;;;17.10;99.90;;;;;;6132473;23;20025;-85
2021/06/27 00:24:58;;;;;;;14.50;10.25;;;17.10;99.90;;;;;;6133907;23;20028;-86
2021/06/27 00:27:25;;;;;;;15.25;10.68;;;17.00;99.90;;;;;;6134856;23;20064;-86
2021/06/27 00:29:53;;;;;;;14.38;9.75;;;17.00;99.90;;;;;;6134801;23;20329;-86
2021/06/27 00:32:20;;;;;;;15.07;10.23;;;17.10;99.90;;;;;;6132276;23;20029;-86
2021/06/27 00:34:47;;;;;;;13.52;9.55;;;17.00;99.90;;;;;;6159001;23;20493;-86
2021/06/27 00:37:13;;;;;;;16.05;11.30;;;17.00;99.90;;;;;;6132626;23;20029;-86
2021/06/27 00:39:40;;;;;;;15.77;10.90;;;17.00;99.90;;;;;;6132702;23;20415;-86
2021/06/27 00:42:07;;;;;;;16.45;11.35;;;17.00;99.90;;;;;;6145803;23;20024;-86
2021/06/27 00:44:34;;;;;;;17.13;12.32;;;17.00;99.90;;;;;;6157194;23;20045;-85
2021/06/27 00:47:03;;;;;;;17.05;11.90;;;17.00;99.90;;;;;;6157038;23;20025;-85
2021/06/27 00:49:30;;;;;;;21.45;14.73;;;17.00;99.90;;;;;;6156615;23;20017;-86
2021/06/27 00:51:56;;;;;;;22.23;15.70;;;17.00;99.90;;;;;;6158418;23;20075;-86
2021/06/27 00:54:23;;;;;;;21.25;15.75;;;16.90;99.90;;;;;;6158248;23;20080;-86
2021/06/27 00:56:50;;;;;;;21.23;12.88;;;17.00;99.90;;;;;;6131781;23;20029;-85
2021/06/27 00:59:17;;;;;;;15.57;11.10;;;17.00;99.90;;;;;;6156206;23;20076;-85
2021/06/27 01:01:44;;;;;;;14.35;10.10;;;17.00;99.90;;;;;;6153351;23;20026;-85
2021/06/27 01:04:12;;;;;;;13.45;9.98;;;17.00;99.90;;;;;;6163383;23;20387;-85
2021/06/27 01:06:39;;;;;;;14.70;10.52;;;16.90;99.90;;;;;;6151970;23;20026;-85
2021/06/27 01:09:06;;;;;;;14.20;10.57;;;16.80;99.90;;;;;;6153719;23;20084;-86
2021/06/27 01:11:33;;;;;;;15.02;10.75;;;16.60;99.90;;;;;;6152492;23;20032;-84
2021/06/27 01:14:01;;;;;;;13.38;10.52;;;16.60;99.90;;;;;;6152833;23;20081;-86
2021/06/27 01:16:28;;;;;;;17.63;12.10;;;16.50;99.90;;;;;;6153686;23;20064;-86
2021/06/27 01:18:55;;;;;;;19.42;12.48;;;16.40;99.90;;;;;;6148428;23;20021;-86
2021/06/27 01:21:24;;;;;;;15.88;11.55;;;16.40;99.90;;;;;;6153161;23;20083;-85
2021/06/27 01:23:50;;;;;;;17.48;10.80;;;16.40;99.90;;;;;;6162218;23;20017;-85
2021/06/27 01:26:17;;;;;;;17.67;10.93;;;16.40;99.90;;;;;;6154316;23;20047;-86
2021/06/27 01:28:44;;;;;;;17.40;11.25;;;16.40;99.90;;;;;;6127004;23;20025;-85
2021/06/27 01:31:12;;;;;;;17.35;11.18;;;16.30;99.90;;;;;;6153641;23;20021;-85
2021/06/27 01:33:40;;;;;;;16.00;11.13;;;17.50;99.90;;;;;;6152062;23;20030;-85
2021/06/27 01:36:07;;;;;;;16.35;11.68;;;16.20;99.90;;;;;;6155224;23;20091;-86
2021/06/27 01:38:35;;;;;;;15.48;11.30;;;16.00;99.90;;;;;;6152158;23;20075;-85
2021/06/27 01:41:04;;;;;;;18.30;12.25;;;16.00;99.90;;;;;;6154798;23;20022;-86
2021/06/27 01:43:31;;;;;;;17.60;12.50;;;16.00;99.90;;;;;;6135834;23;20455;-85
2021/06/27 01:46:04;;;;;;;20.27;13.38;;;16.00;99.90;;;;;;6153759;23;20021;-85
2021/06/27 01:48:32;;;;;;;17.05;12.00;;;15.90;99.90;;;;;;6125758;23;20021;-85
2021/06/27 01:51:02;;;;;;;19.60;14.05;;;15.90;99.90;;;;;;6152709;23;20017;-85
2021/06/27 01:53:31;;;;;;;21.42;14.45;;;15.90;99.90;;;;;;6129195;23;20017;-85
2021/06/27 01:56:06;;;;;;;19.60;14.60;;;15.90;99.90;;;;;;6154330;23;20018;-85
2021/06/27 01:58:36;;;;;;;18.80;13.43;;;15.90;99.90;;;;;;6135709;23;20068;-85
2021/06/27 02:01:05;;;;;;;19.40;13.35;;;15.90;99.90;;;;;;6129091;23;20022;-86
2021/06/27 02:03:32;;;;;;;16.08;12.25;;;16.00;99.90;;;;;;6128037;23;20076;-86
2021/06/27 02:05:59;;;;;;;19.02;11.88;;;16.00;99.90;;;;;;6128163;23;20021;-85
2021/06/27 02:08:31;;;;;;;20.45;12.85;;;15.90;99.90;;;;;;6127576;23;20068;-85
2021/06/27 02:10:59;;;;;;;19.95;13.68;;;15.90;99.90;;;;;;6125619;23;20459;-85
2021/06/27 02:13:26;;;;;;;17.67;12.70;;;15.80;99.90;;;;;;6129758;23;20443;-85
2021/06/27 02:15:53;;;;;;;20.48;13.50;;;15.70;99.90;;;;;;6154768;23;20407;-85
2021/06/27 02:18:30;;;;;;;18.98;13.45;;;15.70;99.90;;;;;;6130447;23;20013;-85
2021/06/27 02:20:59;;;;;;;22.25;14.27;;;15.70;99.90;;;;;;6139288;23;20017;-85
2021/06/27 02:23:26;;;;;;;17.07;12.87;;;15.70;99.90;;;;;;6129919;23;20590;-85
2021/06/27 02:25:53;;;;;;;23.05;13.25;;;15.60;99.90;;;;;;6128733;23;20017;-85
2021/06/27 02:28:22;;;;;;;17.90;12.38;;;15.60;99.90;;;;;;6161536;23;20014;-85
2021/06/27 02:30:50;;;;;;;21.20;13.63;;;15.50;99.90;;;;;;6128472;23;20022;-85
2021/06/27 02:33:17;;;;;;;21.40;13.48;;;15.40;99.90;;;;;;6152759;23;20025;-86
2021/06/27 02:35:45;;;;;;;17.98;12.70;;;15.40;99.90;;;;;;6152766;23;20096;-86
2021/06/27 02:38:12;;;;;;;22.13;15.23;;;15.40;99.90;;;;;;6155015;23;20018;-85
2021/06/27 02:40:43;;;;;;;21.60;14.55;;;15.40;99.90;;;;;;6129870;23;20396;-86
2021/06/27 02:43:11;;;;;;;18.35;13.75;;;15.30;99.90;;;;;;6159313;23;20025;-85
2021/06/27 02:45:39;;;;;;;20.88;14.32;;;15.30;99.90;;;;;;6129319;23;20444;-84
2021/06/27 02:48:08;;;;;;;19.08;13.32;;;15.30;99.90;;;;;;6131848;23;20489;-85
2021/06/27 02:50:36;;;;;;;25.42;13.05;;;15.20;99.90;;;;;;6153577;23;20021;-85
2021/06/27 02:53:05;;;;;;;18.00;13.43;;;15.10;99.90;;;;;;6129177;23;20024;-87
2021/06/27 02:55:32;;;;;;;20.80;13.30;;;14.90;99.90;;;;;;6128015;23;20025;-86
2021/06/27 02:57:59;;;;;;;17.35;13.23;;;15.10;99.90;;;;;;6128950;23;20017;-85
2021/06/27 03:00:26;;;;;;;20.02;14.07;;;15.20;99.90;;;;;;6128716;23;20024;-84
2021/06/27 03:02:54;;;;;;;21.92;15.82;;;13.40;99.90;;;;;;6129267;23;20022;-84
2021/06/27 03:05:21;;;;;;;20.65;14.10;;;14.80;99.90;;;;;;6154077;23;20459;-85
2021/06/27 03:07:48;;;;;;;22.30;15.32;;;15.20;99.90;;;;;;6128429;23;20017;-85
2021/06/27 03:10:17;;;;;;;18.83;13.82;;;16.40;99.90;;;;;;6153044;23;20232;-89
2021/06/27 03:12:45;;;;;;;19.93;13.47;;;15.10;99.90;;;;;;6129230;23;20080;-86
2021/06/27 03:15:14;;;;;;;22.23;13.68;;;15.20;99.90;;;;;;6128212;23;20029;-86
2021/06/27 03:17:41;;;;;;;20.55;12.98;;;15.20;99.90;;;;;;6154811;23;20018;-85
2021/06/27 03:20:11;;;;;;;20.08;12.50;;;15.10;99.90;;;;;;6153114;23;20049;-85
2021/06/27 03:22:39;;;;;;;18.05;13.43;;;15.00;99.90;;;;;;6128977;23;20021;-86
2021/06/27 03:25:08;;;;;;;16.77;12.05;;;14.80;99.90;;;;;;6129071;23;20451;-86
2021/06/27 03:27:35;;;;;;;17.55;13.00;;;15.00;99.90;;;;;;6129257;23;20423;-85
2021/06/27 03:30:03;;;;;;;20.33;13.45;;;14.90;99.90;;;;;;6129367;23;20025;-86
2021/06/27 03:32:30;;;;;;;19.23;13.70;;;15.00;99.90;;;;;;6128681;23;20403;-86
2021/06/27 03:34:57;;;;;;;20.08;14.07;;;14.90;99.90;;;;;;6165782;23;20076;-86
2021/06/27 03:37:25;;;;;;;21.65;14.40;;;15.00;99.90;;;;;;6140139;23;20064;-85
2021/06/27 03:39:52;;;;;;;18.77;14.07;;;15.00;99.90;;;;;;6132148;23;20021;-86
2021/06/27 03:42:19;;;;;;;19.98;14.27;;;15.00;99.90;;;;;;6143688;23;20021;-85
2021/06/27 03:44:46;;;;;;;24.45;15.70;;;15.00;99.90;;;;;;6133251;23;20451;-85
2021/06/27 03:47:13;;;;;;;21.63;15.13;;;15.00;99.90;;;;;;6158499;23;20037;-88
2021/06/27 03:49:41;;;;;;;22.23;14.27;;;15.00;99.90;;;;;;6159722;23;20328;-87
2021/06/27 03:52:08;;;;;;;18.95;13.85;;;15.00;99.90;;;;;;6157531;23;20021;-86
2021/06/27 03:54:36;;;;;;;22.02;13.32;;;16.30;99.90;;;;;;6160071;23;20193;-87
2021/06/27 03:57:04;;;;;;;20.02;13.43;;;15.00;99.90;;;;;;6157798;23;20025;-87
2021/06/27 03:59:31;;;;;;;20.23;13.65;;;15.00;99.90;;;;;;6157781;23;20018;-86
2021/06/27 04:01:58;;;;;;;19.33;13.68;;;15.00;99.90;;;;;;6157543;23;20324;-86
2021/06/27 04:04:24;;;;;;;20.08;13.43;;;15.00;99.90;;;;;;6156699;23;20408;-85
2021/06/27 04:06:51;;;;;;;20.50;14.30;;;15.00;99.90;;;;;;6157925;23;20463;-85
2021/06/27 04:09:18;;;;;;;19.77;13.90;;;15.00;99.90;;;;;;6157860;23;20316;-85
2021/06/27 04:11:46;;;;;;;22.15;13.13;;;15.10;99.90;;;;;;6157540;23;20391;-86
2021/06/27 04:14:13;;;;;;;22.55;14.85;;;15.10;99.90;;;;;;6158872;23;20018;-85
2021/06/27 04:16:40;;;;;;;22.27;14.88;;;16.10;99.90;;;;;;6157435;23;20022;-86
2021/06/27 04:19:07;;;;;;;24.10;16.33;;;15.00;99.90;;;;;;6158188;23;20105;-87
2021/06/27 04:21:34;;;;;;;23.85;14.02;;;14.80;99.90;;;;;;6158465;23;20072;-85
2021/06/27 04:24:01;;;;;;;18.92;14.27;;;15.20;99.90;;;;;;6133549;23;20025;-87
2021/06/27 04:26:28;;;;;;;25.08;14.68;;;15.20;99.90;;;;;;6159284;23;20519;-85
2021/06/27 04:28:56;;;;;;;22.98;15.35;;;15.20;99.90;;;;;;6157451;23;20013;-86
2021/06/27 04:31:23;;;;;;;19.70;14.68;;;15.20;99.90;;;;;;6158800;23;20049;-85
2021/06/27 04:33:49;;;;;;;18.00;13.82;;;15.20;99.90;;;;;;6167181;23;20018;-86
2021/06/27 04:36:16;;;;;;;25.40;15.82;;;15.30;99.90;;;;;;6159152;23;20460;-86
2021/06/27 04:38:43;;;;;;;21.65;13.65;;;15.40;99.90;;;;;;6133272;23;20014;-87
2021/06/27 04:41:10;;;;;;;21.52;14.52;;;15.40;99.90;;;;;;6158563;23;20021;-87
2021/06/27 04:43:37;;;;;;;21.17;14.63;;;15.40;99.90;;;;;;6159283;23;20069;-85
2021/06/27 04:46:05;;;;;;;19.10;14.38;;;15.50;99.90;;;;;;6131538;23;20029;-85
2021/06/27 04:48:32;;;;;;;22.35;15.38;;;15.50;99.90;;;;;;6132285;23;20024;-87
2021/06/27 04:50:59;;;;;;;21.77;13.45;;;15.60;99.90;;;;;;6133200;23;20022;-85
2021/06/27 04:53:26;;;;;;;21.48;13.77;;;15.70;99.90;;;;;;6133285;23;20025;-88
2021/06/27 04:55:58;;;;;;;18.80;13.77;;;15.70;99.90;;;;;;6133459;23;20025;-86
2021/06/27 04:58:25;;;;;;;17.17;13.05;;;15.70;99.90;;;;;;6132276;23;20080;-86
2021/06/27 05:00:52;;;;;;;17.63;13.55;;;15.80;99.90;;;;;;6132218;23;20403;-84
2021/06/27 05:03:20;;;;;;;21.23;14.07;;;15.70;99.90;;;;;;6129840;23;20028;-86
2021/06/27 05:05:47;;;;;;;22.02;14.50;;;15.70;99.90;;;;;;6155424;23;20032;-86
2021/06/27 05:08:14;;;;;;;19.52;13.35;;;16.20;99.90;;;;;;6131205;23;20013;-85
2021/06/27 05:10:41;;;;;;;17.23;12.73;;;17.20;99.90;;;;;;6156562;23;20025;-86
2021/06/27 05:13:08;;;;;;;19.92;13.52;;;15.90;99.90;;;;;;6139294;23;20017;-86
2021/06/27 05:15:35;;;;;;;20.10;14.32;;;16.00;99.90;;;;;;6154506;23;20107;-85
2021/06/27 05:18:03;;;;;;;15.13;12.57;;;16.00;99.90;;;;;;6156553;23;20029;-85
2021/06/27 05:20:31;;;;;;;18.60;12.85;;;16.10;99.90;;;;;;6129399;23;20025;-85
2021/06/27 05:22:58;;;;;;;20.98;14.52;;;16.10;99.90;;;;;;6130224;23;20053;-86
2021/06/27 05:25:25;;;;;;;20.42;14.93;;;16.20;99.90;;;;;;6131060;23;20068;-85
2021/06/27 05:27:52;;;;;;;19.45;14.45;;;16.30;99.90;;;;;;6157313;23;20028;-86
2021/06/27 05:30:20;;;;;;;18.85;14.07;;;16.40;99.90;;;;;;6156074;23;20023;-86
2021/06/27 05:32:46;;;;;;;24.60;14.18;;;16.40;99.90;;;;;;6131669;23;20041;-88
2021/06/27 05:35:13;;;;;;;22.75;14.00;;;16.50;99.90;;;;;;6132700;23;20076;-85
2021/06/27 05:37:41;;;;;;;22.17;13.77;;;16.70;99.90;;;;;;6156235;23;20092;-85
2021/06/27 05:40:09;;;;;;;24.58;13.52;;;16.70;99.90;;;;;;6133431;23;20021;-85
2021/06/27 05:42:36;;;;;;;17.63;12.50;;;16.80;99.90;;;;;;6131500;23;20040;-86
2021/06/27 05:45:05;;;;;;;19.08;12.70;;;16.90;99.90;;;;;;6129621;23;20390;-89
2021/06/27 05:47:32;;;;;;;14.57;11.38;;;17.00;99.90;;;;;;6156912;23;20325;-86
2021/06/27 05:49:59;;;;;;;15.63;12.45;;;17.10;99.90;;;;;;6129851;23;20511;-85
2021/06/27 05:52:26;;;;;;;22.30;12.70;;;17.20;99.90;;;;;;6128502;23;20021;-86
2021/06/27 05:54:54;;;;;;;17.02;12.10;;;17.30;99.90;;;;;;6129262;23;20025;-86
2021/06/27 05:57:22;;;;;;;20.33;12.25;;;17.40;99.90;;;;;;6153643;23;20461;-87
2021/06/27 05:59:49;;;;;;;17.92;12.48;;;17.40;99.90;;;;;;6128971;23;20029;-85
2021/06/27 06:02:16;;;;;;;16.40;12.30;;;17.40;99.90;;;;;;6129426;23;20072;-88
2021/06/27 06:04:43;;;;;;;15.27;12.13;;;17.50;99.90;;;;;;6129461;23;20021;-86
2021/06/27 06:07:10;;;;;;;16.75;12.82;;;17.50;99.90;;;;;;6163840;23;20081;-85
2021/06/27 06:09:36;;;;;;;16.42;12.15;;;17.50;99.90;;;;;;6128309;23;20044;-85
2021/06/27 06:12:05;;;;;;;17.80;12.10;;;17.60;99.90;;;;;;6138238;23;20395;-86
2021/06/27 06:14:32;;;;;;;15.75;12.15;;;17.60;99.90;;;;;;6155069;23;20080;-85
2021/06/27 06:16:59;;;;;;;17.60;11.98;;;17.70;99.90;;;;;;6130610;23;20092;-85
2021/06/27 06:19:26;;;;;;;17.23;11.35;;;17.80;99.90;;;;;;6130921;23;20014;-85
2021/06/27 06:21:53;;;;;;;14.10;10.98;;;18.00;99.90;;;;;;6140668;23;20013;-86
2021/06/27 06:24:20;;;;;;;15.23;10.05;;;18.10;99.90;;;;;;6156754;23;20041;-88
2021/06/27 06:26:48;;;;;;;14.15;9.85;;;18.20;99.90;;;;;;6155526;23;20415;-85
2021/06/27 06:29:16;;;;;;;14.15;9.73;;;18.30;99.90;;;;;;6156517;23;20072;-85
2021/06/27 06:31:43;;;;;;;13.13;8.85;;;20.10;99.90;;;;;;6130747;23;20029;-86
2021/06/27 06:34:10;;;;;;;10.73;8.38;;;18.50;99.90;;;;;;6131503;23;20025;-86
2021/06/27 06:36:43;;;;;;;11.32;8.25;;;18.30;99.90;;;;;;6132840;23;20090;-84
2021/06/27 06:39:10;;;;;;;10.80;8.87;;;18.70;99.90;;;;;;6157422;23;20174;-86
2021/06/27 06:41:37;;;;;;;13.40;9.15;;;18.80;99.90;;;;;;6155177;23;20025;-87
2021/06/27 06:44:04;;;;;;;10.38;7.82;;;18.90;99.90;;;;;;6130493;23;20021;-86
2021/06/27 06:46:32;;;;;;;11.63;8.48;;;19.00;99.90;;;;;;6131021;23;20017;-85
2021/06/27 06:48:59;;;;;;;14.43;8.25;;;19.10;99.90;;;;;;6131016;23;20025;-86
2021/06/27 06:51:26;;;;;;;10.65;7.75;;;19.20;99.90;;;;;;6130593;23;20025;-86
2021/06/27 06:53:53;;;;;;;13.55;9.00;;;19.30;99.90;;;;;;6157754;23;20478;-85
2021/06/27 06:56:20;;;;;;;10.85;8.45;;;19.40;99.90;;;;;;6155322;23;20021;-87
2021/06/27 06:58:47;;;;;;;12.27;8.45;;;20.80;99.90;;;;;;6130154;23;20017;-86
2021/06/27 07:01:15;;;;;;;14.02;9.38;;;19.60;99.90;;;;;;6127673;23;20021;-86
2021/06/27 07:03:44;;;;;;;10.35;7.57;;;19.60;99.90;;;;;;6128334;23;20040;-86
2021/06/27 07:06:10;;;;;;;10.95;7.60;;;21.90;99.90;;;;;;6153814;23;20024;-86
2021/06/27 07:08:37;;;;;;;10.48;7.78;;;19.80;99.90;;;;;;6154378;23;20025;-86
2021/06/27 07:11:04;;;;;;;9.93;7.50;;;19.90;99.90;;;;;;6129339;23;20017;-88
2021/06/27 07:13:31;;;;;;;12.60;7.53;;;20.00;99.90;;;;;;6129327;23;20021;-85
2021/06/27 07:15:58;;;;;;;9.13;7.22;;;20.00;99.90;;;;;;6151057;23;20032;-86
2021/06/27 07:18:25;;;;;;;12.60;7.60;;;20.10;99.90;;;;;;6128345;23;20427;-86
2021/06/27 07:20:53;;;;;;;9.07;7.28;;;20.20;99.90;;;;;;6127504;23;20070;-86
2021/06/27 07:23:20;;;;;;;8.60;6.40;;;20.30;99.90;;;;;;6153129;23;20017;-86
2021/06/27 07:25:47;;;;;;;10.13;6.30;;;20.40;99.90;;;;;;6128735;23;20076;-87
2021/06/27 07:28:14;;;;;;;9.23;6.53;;;20.60;99.90;;;;;;6154259;23;20021;-86
2021/06/27 07:30:41;;;;;;;9.70;7.25;;;20.70;99.90;;;;;;6128105;23;20394;-86
2021/06/27 07:33:09;;;;;;;9.32;6.55;;;21.30;99.90;;;;;;6127636;23;20022;-88
2021/06/27 07:35:36;;;;;;;8.25;6.75;;;22.50;99.90;;;;;;6128340;23;20018;-90
2021/06/27 07:38:05;;;;;;;11.65;6.00;;;21.00;99.90;;;;;;6129968;23;20025;-85
2021/06/27 07:40:31;;;;;;;9.10;6.15;;;21.10;99.90;;;;;;6138686;23;20014;-86
2021/06/27 07:42:59;;;;;;;8.48;6.50;;;21.20;99.90;;;;;;6154598;23;20022;-86
2021/06/27 07:45:26;;;;;;;8.18;5.47;;;21.40;99.90;;;;;;6128278;23;20017;-86
2021/06/27 07:47:53;;;;;;;9.00;6.57;;;21.90;99.90;;;;;;6154729;23;20026;-86
2021/06/27 07:50:19;;;;;;;9.05;5.63;;;21.50;99.90;;;;;;6155147;23;20018;-86
2021/06/27 07:52:46;;;;;;;7.57;5.93;;;21.60;99.90;;;;;;6129969;23;20026;-87
2021/06/27 07:55:14;;;;;;;7.97;5.97;;;21.70;99.90;;;;;;6128954;23;20017;-89
2021/06/27 07:57:41;;;;;;;7.68;5.20;;;23.50;99.90;;;;;;6128930;23;20021;-87
2021/06/27 08:00:10;;;;;;;7.75;5.47;;;22.00;99.90;;;;;;6127889;23;20037;-86
2021/06/27 08:02:37;;;;;;;7.10;4.60;;;22.10;99.90;;;;;;6154367;23;20021;-85
2021/06/27 08:05:06;;;;;;;5.97;4.30;;;22.20;99.90;;;;;;6127817;23;20025;-86
2021/06/27 08:07:33;;;;;;;6.35;4.70;;;22.50;99.90;;;;;;6126568;23;20013;-85
2021/06/27 08:10:00;;;;;;;6.65;5.13;;;24.70;99.90;;;;;;6127104;23;20106;-86
2021/06/27 08:12:28;;;;;;;6.38;4.50;;;22.80;99.90;;;;;;6123989;23;20025;-88
2021/06/27 08:14:55;;;;;;;7.45;4.80;;;23.00;99.90;;;;;;6127428;23;20036;-85
2021/06/27 08:17:22;;;;;;;7.57;3.95;;;23.30;99.90;;;;;;6153426;23;20040;-87
2021/06/27 08:19:49;;;;;;;6.60;4.95;;;23.40;99.90;;;;;;6137883;23;20021;-86
2021/06/27 08:22:16;;;;;;;6.38;4.32;;;23.60;99.90;;;;;;6153543;23;20021;-86
2021/06/27 08:24:43;;;;;;;6.43;4.90;;;24.80;99.90;;;;;;6153615;23;20386;-87
2021/06/27 08:27:10;;;;;;;7.30;4.40;;;24.10;99.90;;;;;;6127371;23;20021;-88
2021/06/27 08:29:39;;;;;;;5.60;3.40;;;24.40;99.90;;;;;;6135908;23;20018;-88
2021/06/27 08:32:07;;;;;;;5.03;3.50;;;25.40;98.80;;;;;;6125211;23;20440;-87
2021/06/27 08:34:34;;;;;;;4.63;3.30;;;24.30;98.50;;;;;;6151647;23;20017;-87
2021/06/27 08:37:01;;;;;;;5.05;3.10;;;24.50;98.20;;;;;;6130387;23;20021;-85
2021/06/27 08:39:28;;;;;;;3.92;2.90;;;24.50;98.50;;;;;;6130003;23;20339;-86
2021/06/27 08:44:33;;;;;;;4.47;3.22;;;24.90;99.90;;;;;;6215446;23;20020;-88
2021/06/27 08:47:02;;;;;;;5.18;3.15;;;26.80;99.90;;;;;;6217300;23;20024;-86
2021/06/27 08:49:31;;;;;;;;;;;25.10;97.50;;;;;;6213901;23;20354;-87
2021/06/27 08:51:58;;;;;;;5.15;3.80;;;25.30;98.50;;;;;;6215095;23;19919;-87
2021/06/27 08:54:27;;;;;;;5.47;3.72;;;25.10;97.50;;;;;;6189248;23;20067;-86
2021/06/27 08:56:55;;;;;;;5.72;3.70;;;25.30;98.20;;;;;;6189700;23;20024;-88
2021/06/27 08:59:22;;;;;;;4.38;3.50;;;25.20;96.60;;;;;;6188085;23;20075;-86
2021/06/27 09:01:48;;;;;;;5.22;3.50;;;25.40;97.10;;;;;;6188984;23;20442;-86
2021/06/27 09:04:18;;;;;;;5.18;3.00;;;25.30;97.20;;;;;;6189525;23;20024;-86
2021/06/27 09:06:45;;;;;;;5.13;3.45;;;25.30;96.30;;;;;;6188718;23;20021;-87
2021/06/27 09:09:15;;;;;;;5.75;3.50;;;25.30;97.50;;;;;;6189483;23;20020;-86
2021/06/27 09:11:57;;;;;;;8.70;3.65;;;26.10;97.40;;;;;;6215559;23;20040;-84
2021/06/27 09:14:34;;;;;;;6.45;3.13;;;25.20;96.10;;;;;;6189339;23;20021;-86
2021/06/27 09:17:09;;;;;;;6.25;3.05;;;26.70;96.30;;;;;;6190513;23;20016;-85
2021/06/27 09:20:04;;;;;;;4.85;2.55;;;25.00;96.40;;;;;;6216204;23;20040;-86
2021/06/27 09:22:33;;;;;;;5.00;3.03;;;25.10;97.20;;;;;;6190516;23;20067;-85
2021/06/27 09:25:22;;;;;;;5.45;3.70;;;25.10;96.60;;;;;;6216215;23;20040;-85
2021/06/27 09:28:07;;;;;;;4.75;3.80;;;25.00;96.90;;;;;;6189427;23;20020;-87
2021/06/27 09:30:37;;;;;;;5.10;3.88;;;25.00;96.80;;;;;;6185913;23;20474;-87
2021/06/27 09:33:08;;;;;;;5.25;3.80;;;24.80;98.70;;;;;;6192091;23;20039;-86
2021/06/27 09:35:52;;;;;;;5.03;3.80;;;24.60;97.00;;;;;;6209858;23;20734;-86
2021/06/27 09:38:29;;;;;;;4.95;3.28;;;24.60;97.70;;;;;;6207196;23;20040;-88
2021/06/27 09:40:58;;;;;;;4.55;3.03;;;24.70;96.80;;;;;;6211567;23;20075;-87
2021/06/27 09:43:26;;;;;;;4.32;2.97;;;24.70;97.00;;;;;;6214772;23;20020;-85
2021/06/27 09:45:56;;;;;;;5.38;3.53;;;24.60;96.00;;;;;;6216419;23;20063;-85
2021/06/27 09:48:24;;;;;;;4.55;3.38;;;24.50;96.10;;;;;;6188683;23;20836;-85
2021/06/27 09:50:54;;;;;;;4.28;3.10;;;24.60;97.10;;;;;;6187822;23;20454;-87
2021/06/27 09:53:33;;;;;;;4.88;3.35;;;24.70;96.80;;;;;;6187993;23;20382;-86
2021/06/27 09:56:02;;;;;;;5.03;2.92;;;24.70;96.20;;;;;;6198803;23;20020;-86
2021/06/27 09:58:29;;;;;;;4.35;3.20;;;24.70;96.70;;;;;;6188273;23;20051;-86
2021/06/27 10:00:57;;;;;;;4.03;2.88;;;24.60;96.60;;;;;;6188756;23;20024;-86
2021/06/27 10:03:26;;;;;;;3.75;2.80;;;24.60;96.40;;;;;;6188590;23;20346;-86
2021/06/27 10:06:04;;;;;;;6.32;3.20;;;24.70;96.00;;;;;;6187630;23;20024;-87
2021/06/27 10:08:31;;;;;;;3.80;3.00;;;24.60;95.80;;;;;;6188808;23;20074;-86
2021/06/27 10:11:11;;;;;;;4.85;3.08;;;24.50;95.70;;;;;;6214479;23;20063;-87
2021/06/27 10:13:39;;;;;;;4.40;2.90;;;24.60;95.80;;;;;;6213885;23;20032;-86
2021/06/27 10:16:06;;;;;;;3.97;2.90;;;24.70;96.30;;;;;;6188744;23;20067;-86
2021/06/27 10:18:35;;;;;;;3.72;2.72;;;24.60;94.20;;;;;;6215390;23;20393;-85
2021/06/27 10:21:03;;;;;;;5.07;2.80;;;24.60;96.30;;;;;;6188325;23;20017;-87
2021/06/27 10:23:31;;;;;;;4.73;3.10;;;24.70;96.00;;;;;;6189622;23;20351;-86
2021/06/27 10:25:58;;;;;;;3.83;2.60;;;24.80;94.20;;;;;;6187927;23;20413;-85
2021/06/27 10:28:25;;;;;;;4.07;2.97;;;24.80;96.10;;;;;;6190892;23;20017;-84
2021/06/27 10:30:53;;;;;;;3.92;2.70;;;24.80;95.20;;;;;;6201162;23;20012;-84
2021/06/27 10:33:20;;;;;;;6.40;3.00;;;24.60;93.40;;;;;;6215112;23;20058;-86
2021/06/27 10:35:50;;;;;;;5.25;3.00;;;24.60;93.60;;;;;;6224650;23;20017;-87
2021/06/27 10:38:23;;;;;;;4.40;2.95;;;24.60;92.20;;;;;;6214650;23;20024;-85
2021/06/27 10:40:52;;;;;;;4.88;2.85;;;25.30;91.60;;;;;;6188645;23;20343;-86
2021/06/27 10:43:19;;;;;;;4.28;3.05;;;26.00;92.30;;;;;;6187074;23;20448;-88
2021/06/27 10:45:59;;;;;;;4.53;3.03;;;24.60;91.60;;;;;;6188108;23;20078;-87
2021/06/27 10:48:38;;;;;;;5.00;3.00;;;24.60;91.40;;;;;;6188851;23;20070;-88
2021/06/27 10:51:07;;;;;;;6.28;2.90;;;24.70;93.90;;;;;;6187904;23;20020;-86
2021/06/27 10:54:13;;;;;;;4.28;2.75;;;24.70;91.80;;;;;;6213193;23;20382;-85
2021/06/27 10:57:01;;;;;;;7.20;2.90;;;24.80;92.00;;;;;;6188203;23;20074;-87
2021/06/27 10:59:56;;;;;;;3.50;2.60;;;24.80;92.00;;;;;;6188041;23;20016;-85
2021/06/27 11:02:37;;;;;;;4.25;2.95;;;24.90;91.30;;;;;;6214443;23;20051;-86
2021/06/27 11:05:42;;;;;;;3.75;2.60;;;25.00;92.40;;;;;;6187818;23;20017;-86
2021/06/27 11:08:12;;;;;;;6.25;3.10;;;25.00;91.10;;;;;;6212792;23;20021;-85
2021/06/27 11:10:41;;;;;;;5.40;2.95;;;24.80;90.60;;;;;;6214480;23;20020;-86
2021/06/27 11:13:13;;;;;;;4.18;2.65;;;24.70;91.60;;;;;;6188238;23;20068;-86
2021/06/27 11:16:02;;;;;;;3.72;2.63;;;24.80;92.40;;;;;;6187536;23;20013;-86
2021/06/27 11:18:34;;;;;;;6.82;3.25;;;24.90;92.50;;;;;;6187683;23;20017;-85
2021/06/27 11:21:07;;;;;;;3.80;2.63;;;25.00;93.60;;;;;;6212604;23;20017;-87
2021/06/27 11:23:51;;;;;;;3.95;2.53;;;25.10;91.70;;;;;;6188735;23;20374;-86
2021/06/27 11:26:53;;;;;;;3.88;2.60;;;25.10;90.40;;;;;;6188968;23;20098;-85
2021/06/27 11:29:45;;;;;;;4.47;2.72;;;25.10;90.90;;;;;;6214298;23;20071;-85
2021/06/27 11:32:39;;;;;;;4.38;2.92;;;25.10;92.90;;;;;;6189784;23;20017;-87
2021/06/27 11:35:07;;;;;;;4.15;2.40;;;25.40;92.40;;;;;;6208556;23;20024;-87
2021/06/27 11:37:43;;;;;;;4.03;2.70;;;25.60;92.50;;;;;;6226214;23;20023;-85
2021/06/27 11:40:10;;;;;;;4.78;2.58;;;25.70;90.10;;;;;;6199300;23;20042;-87
2021/06/27 11:42:49;;;;;;;3.90;2.25;;;25.90;90.90;;;;;;6188548;23;20017;-87
2021/06/27 11:45:38;;;;;;;4.93;2.90;;;26.30;91.20;;;;;;6188825;23;20075;-87
2021/06/27 11:48:08;;;;;;;;;;;26.50;91.80;;;;;;6212326;23;20474;-86
2021/06/27 11:50:37;;;;;;;3.78;2.58;;;26.70;91.80;;;;;;6214171;23;19923;-86
2021/06/27 11:53:06;;;;;;;3.72;2.67;;;27.00;88.90;;;;;;6189926;23;20054;-89
2021/06/27 11:55:34;;;;;;;3.70;2.60;;;26.40;88.30;;;;;;6199449;23;20018;-87
2021/06/27 11:58:05;;;;;;;4.20;2.88;;;26.60;87.60;;;;;;6217334;23;20028;-87
2021/06/27 12:00:35;;;;;;;4.65;2.67;;;27.30;90.40;;;;;;6218043;23;20013;-88
2021/06/27 12:03:06;;;;;;;5.70;2.60;;;28.80;88.30;;;;;;6191653;23;20020;-89
2021/06/27 12:05:34;;;;;;;5.85;2.70;;;26.40;88.20;;;;;;6190475;23;20454;-87
2021/06/27 12:08:07;;;;;;;4.22;2.65;;;26.40;90.60;;;;;;6217255;23;20463;-85
2021/06/27 12:10:35;;;;;;;4.85;2.63;;;26.30;88.10;;;;;;6217152;23;20024;-87
2021/06/27 12:13:05;;;;;;;3.50;2.42;;;26.40;90.00;;;;;;6217766;23;20020;-87
2021/06/27 12:15:36;;;;;;;4.88;2.72;;;26.50;90.70;;;;;;6192699;23;20454;-85
2021/06/27 12:18:06;;;;;;;3.83;2.42;;;28.70;90.20;;;;;;6192471;23;20019;-87
2021/06/27 12:20:38;;;;;;;3.60;2.30;;;26.90;90.20;;;;;;6202474;23;20067;-85
2021/06/27 12:23:07;;;;;;;2.67;2.17;;;27.90;88.70;;;;;;6192131;23;20020;-87
2021/06/27 12:25:36;;;;;;;3.42;2.47;;;26.90;86.20;;;;;;6191598;23;20063;-87
2021/06/27 12:28:07;;;;;;;4.05;2.38;;;27.80;89.50;;;;;;6191216;23;20024;-87
2021/06/27 12:30:53;;;;;;;4.13;2.60;;;26.70;90.00;;;;;;6190239;23;20051;-86
2021/06/27 12:33:22;;;;;;;3.28;2.38;;;26.70;89.90;;;;;;6202161;23;20439;-85
2021/06/27 12:35:53;;;;;;;5.10;2.72;;;26.90;89.90;;;;;;6192691;23;20027;-87
2021/06/27 12:38:21;;;;;;;3.42;2.17;;;27.00;90.10;;;;;;6191910;23;20078;-86
2021/06/27 12:40:49;;;;;;;3.70;2.13;;;27.10;89.20;;;;;;6219199;23;20017;-88
2021/06/27 12:43:37;;;;;;;4.30;2.80;;;27.30;87.50;;;;;;6218565;23;20414;-89
2021/06/27 12:46:16;;;;;;;3.50;2.30;;;27.90;86.60;;;;;;6218377;23;20027;-85
2021/06/27 12:48:45;;;;;;;4.85;2.40;;;27.10;90.50;;;;;;6219256;23;20035;-86